createdAt,value
2024-03-05T00:02:15.856Z,2.38
2024-03-05T00:04:42.318Z,2.60
2024-03-05T00:07:08.806Z,2.60
2024-03-05T00:09:35.471Z,3.30
2024-03-05T00:12:01.886Z,2.88
2024-03-05T00:14:28.214Z,3.33
2024-03-05T00:16:54.612Z,3.40
2024-03-05T00:19:21.164Z,3.13
2024-03-05T00:21:48.484Z,3.35
2024-03-05T00:24:14.834Z,3.45
2024-03-05T00:26:41.194Z,4.30
2024-03-05T00:29:07.870Z,4.03
2024-03-05T00:31:34.465Z,3.83
2024-03-05T00:34:00.789Z,4.38
2024-03-05T00:36:28.293Z,3.95
2024-03-05T00:38:54.680Z,4.63
2024-03-05T00:41:20.986Z,4.13
2024-03-05T00:43:47.425Z,3.58
2024-03-05T00:46:13.878Z,3.35
2024-03-05T00:48:40.696Z,3.75
2024-03-05T00:51:09.686Z,3.45
2024-03-05T00:53:36.903Z,3.92
2024-03-05T00:56:03.371Z,3.50
2024-03-05T00:58:29.713Z,3.15
2024-03-05T01:00:56.087Z,3.85
2024-03-05T01:03:22.826Z,3.88
2024-03-05T01:05:49.168Z,3.30
2024-03-05T01:08:15.547Z,3.28
2024-03-05T01:10:46.269Z,3.75
2024-03-05T01:13:13.326Z,4.32
2024-03-05T01:15:39.760Z,3.72
2024-03-05T01:18:06.175Z,4.07
2024-03-05T01:20:32.454Z,3.60
2024-03-05T01:22:58.854Z,3.50
2024-03-05T01:25:25.609Z,3.38
2024-03-05T01:27:51.974Z,3.45
2024-03-05T01:30:18.390Z,3.42
2024-03-05T01:32:45.325Z,3.50
2024-03-05T01:35:12.415Z,4.18
2024-03-05T01:37:39.313Z,4.00
2024-03-05T01:40:06.116Z,4.00
2024-03-05T01:42:32.883Z,5.13
2024-03-05T01:44:59.450Z,7.07
2024-03-05T01:47:26.882Z,7.53
2024-03-05T01:49:53.337Z,6.32
2024-03-05T01:52:19.988Z,5.93
2024-03-05T01:54:46.510Z,4.53
2024-03-05T01:57:13.061Z,5.95
2024-03-05T01:59:42.648Z,5.43
2024-03-05T02:02:11.066Z,5.95
2024-03-05T02:04:39.015Z,5.45
2024-03-05T02:07:07.718Z,4.85
2024-03-05T02:09:34.054Z,6.80
2024-03-05T02:12:03.822Z,8.20
2024-03-05T02:14:31.876Z,8.75
2024-03-05T02:16:58.890Z,8.18
2024-03-05T02:19:25.282Z,6.43
2024-03-05T02:22:04.338Z,5.47
2024-03-05T02:24:31.098Z,5.78
2024-03-05T02:26:57.399Z,6.13
2024-03-05T02:29:26.479Z,6.78
2024-03-05T02:31:52.988Z,8.30
2024-03-05T02:34:19.490Z,8.27
2024-03-05T02:36:45.781Z,8.40
2024-03-05T02:39:13.237Z,9.65
2024-03-05T02:41:40.173Z,7.93
2024-03-05T02:44:06.580Z,7.68
2024-03-05T02:46:33.098Z,7.75
2024-03-05T02:49:00.695Z,8.38
2024-03-05T02:51:28.215Z,8.20
2024-03-05T02:53:54.522Z,7.55
2024-03-05T02:56:20.798Z,8.63
2024-03-05T02:58:47.156Z,8.60
2024-03-05T03:01:13.622Z,10.02
2024-03-05T03:03:40.255Z,12.93
2024-03-05T03:06:06.650Z,10.05
2024-03-05T03:08:34.253Z,10.30
2024-03-05T03:11:01.069Z,10.65
2024-03-05T03:13:27.525Z,9.95
2024-03-05T03:15:53.974Z,9.55
2024-03-05T03:18:21.961Z,12.38
2024-03-05T03:20:48.358Z,11.07
2024-03-05T03:23:14.820Z,10.20
2024-03-05T03:25:42.384Z,10.25
2024-03-05T03:28:08.997Z,10.40
2024-03-05T03:30:35.376Z,10.02
2024-03-05T03:33:01.733Z,10.23
2024-03-05T03:35:28.106Z,10.88
2024-03-05T03:37:54.437Z,9.93
2024-03-05T03:40:23.984Z,10.80
2024-03-05T03:42:54.140Z,9.68
2024-03-05T03:45:20.506Z,9.77
2024-03-05T03:47:47.403Z,9.38
2024-03-05T03:50:14.179Z,9.85
2024-03-05T03:52:41.364Z,9.40
2024-03-05T03:55:08.734Z,9.82
2024-03-05T03:57:35.808Z,10.80
2024-03-05T04:00:08.568Z,10.18
2024-03-05T04:02:36.557Z,9.93
2024-03-05T04:05:05.671Z,8.68
2024-03-05T04:07:33.289Z,8.75
2024-03-05T04:10:01.983Z,8.70
2024-03-05T04:12:28.875Z,9.52
2024-03-05T04:14:55.715Z,8.85
2024-03-05T04:17:22.235Z,8.80
2024-03-05T04:19:49.719Z,8.73
2024-03-05T04:22:16.231Z,8.65
2024-03-05T04:24:53.249Z,8.85
2024-03-05T04:27:20.266Z,8.25
2024-03-05T04:29:48.443Z,7.90
2024-03-05T04:32:15.421Z,8.20
2024-03-05T04:34:44.050Z,7.88
2024-03-05T04:37:12.035Z,7.80
2024-03-05T04:39:44.318Z,7.10
2024-03-05T04:42:10.705Z,7.35
2024-03-05T04:44:37.185Z,7.03
2024-03-05T04:47:05.198Z,7.15
2024-03-05T04:49:31.692Z,7.22
2024-03-05T04:52:00.602Z,6.97
2024-03-05T04:54:26.897Z,7.88
2024-03-05T04:56:53.518Z,6.82
2024-03-05T04:59:19.818Z,7.40
2024-03-05T05:01:46.143Z,7.93
2024-03-05T05:04:12.507Z,8.05
2024-03-05T05:06:38.848Z,6.90
2024-03-05T05:09:06.733Z,7.05
2024-03-05T05:11:33.970Z,7.55
2024-03-05T05:14:00.543Z,7.10
2024-03-05T05:16:27.724Z,7.28
2024-03-05T05:18:54.036Z,7.32
2024-03-05T05:21:20.319Z,7.95
2024-03-05T05:23:50.034Z,7.07
2024-03-05T05:26:16.586Z,7.07
2024-03-05T05:28:42.963Z,8.45
2024-03-05T05:31:21.640Z,7.95
2024-03-05T05:33:47.934Z,9.02
2024-03-05T05:36:15.244Z,9.13
2024-03-05T05:38:42.835Z,8.45
2024-03-05T05:41:09.188Z,8.43
2024-03-05T05:43:35.661Z,8.55
2024-03-05T05:46:05.949Z,8.77
2024-03-05T05:48:33.058Z,8.68
2024-03-05T05:50:59.888Z,9.15
2024-03-05T05:53:26.452Z,8.60
2024-03-05T05:55:52.778Z,9.90
2024-03-05T05:58:19.737Z,8.57
2024-03-05T06:00:46.117Z,8.60
2024-03-05T06:03:12.559Z,10.57
2024-03-05T06:05:39.453Z,10.60
2024-03-05T06:08:10.159Z,11.05
2024-03-05T06:13:03.011Z,11.85
2024-03-05T06:15:30.389Z,13.32
2024-03-05T06:17:57.133Z,11.57
2024-03-05T06:20:23.522Z,11.90
2024-03-05T06:22:50.385Z,10.98
2024-03-05T06:25:20.067Z,11.00
2024-03-05T06:27:46.788Z,10.40
2024-03-05T06:30:16.380Z,11.40
2024-03-05T06:32:49.656Z,11.52
2024-03-05T06:35:16.058Z,11.00
2024-03-05T06:37:44.922Z,11.45
2024-03-05T06:40:12.134Z,10.07
2024-03-05T06:42:42.418Z,10.90
2024-03-05T06:45:15.910Z,11.65
2024-03-05T06:47:48.489Z,12.13
2024-03-05T06:50:20.760Z,10.30
2024-03-05T06:53:06.235Z,11.38
2024-03-05T06:55:51.231Z,11.73
2024-03-05T06:58:18.047Z,10.60
2024-03-05T07:00:47.371Z,12.70
2024-03-05T07:03:14.409Z,12.38
2024-03-05T07:05:40.746Z,11.70
2024-03-05T07:08:09.273Z,12.10
2024-03-05T07:10:36.801Z,11.35
2024-03-05T07:13:03.215Z,12.27
2024-03-05T07:15:30.900Z,11.98
2024-03-05T07:17:57.525Z,12.73
2024-03-05T07:20:25.563Z,14.02
2024-03-05T07:22:52.423Z,14.25
2024-03-05T07:25:18.987Z,13.95
2024-03-05T07:27:45.814Z,13.00
2024-03-05T07:30:13.235Z,14.10
2024-03-05T07:32:39.644Z,12.02
2024-03-05T07:35:09.529Z,12.10
2024-03-05T07:37:36.392Z,12.03
2024-03-05T07:40:20.829Z,12.85
2024-03-05T07:42:48.627Z,12.40
2024-03-05T07:45:17.890Z,13.55
2024-03-05T07:47:44.862Z,13.70
2024-03-05T07:50:15.498Z,15.23
2024-03-05T07:55:11.227Z,14.73
2024-03-05T07:57:39.168Z,14.75
2024-03-05T08:00:15.353Z,16.27
2024-03-05T08:02:42.670Z,15.82
2024-03-05T08:05:09.208Z,16.27
2024-03-05T08:07:36.619Z,17.40
2024-03-05T08:10:04.262Z,16.33
2024-03-05T08:12:31.836Z,18.05
2024-03-05T08:14:58.232Z,18.45
2024-03-05T08:17:24.681Z,19.77
2024-03-05T08:19:51.079Z,19.85
2024-03-05T08:22:17.453Z,18.10
2024-03-05T08:24:44.036Z,17.25
2024-03-05T08:27:10.696Z,16.67
2024-03-05T08:29:40.665Z,17.10
2024-03-05T08:32:10.343Z,18.48
2024-03-05T08:34:38.170Z,16.83
2024-03-05T08:37:04.554Z,17.67
2024-03-05T08:39:30.956Z,17.98
2024-03-05T08:41:59.768Z,21.23
2024-03-05T08:44:26.458Z,21.17
2024-03-05T08:46:54.162Z,20.70
2024-03-05T08:49:20.919Z,22.90
2024-03-05T08:51:47.357Z,22.05
2024-03-05T08:54:15.750Z,21.73
2024-03-05T08:56:43.786Z,23.73
2024-03-05T08:59:10.343Z,22.73
2024-03-05T09:01:37.180Z,22.67
2024-03-05T09:04:07.122Z,21.55
2024-03-05T09:06:33.956Z,23.77
2024-03-05T09:09:00.311Z,24.55
2024-03-05T09:11:26.811Z,25.15
2024-03-05T09:13:53.190Z,25.23
2024-03-05T09:16:19.484Z,24.48
2024-03-05T09:18:45.950Z,23.02
2024-03-05T09:21:13.207Z,25.48
2024-03-05T09:23:40.605Z,26.95
2024-03-05T09:26:08.459Z,25.45
2024-03-05T09:28:35.580Z,25.25
2024-03-05T09:31:01.958Z,25.92
2024-03-05T09:33:28.399Z,25.80
2024-03-05T09:35:54.679Z,26.13
2024-03-05T09:38:21.039Z,27.73
2024-03-05T09:40:47.428Z,26.45
2024-03-05T09:43:14.265Z,27.55
2024-03-05T09:45:42.057Z,28.83
2024-03-05T09:48:10.243Z,26.70
2024-03-05T09:50:36.902Z,29.55
2024-03-05T09:53:03.656Z,29.60
2024-03-05T09:55:31.467Z,29.88
2024-03-05T09:57:58.797Z,28.73
2024-03-05T10:00:26.968Z,28.67
2024-03-05T10:02:53.568Z,27.75
2024-03-05T10:05:20.545Z,28.23
2024-03-05T10:07:50.443Z,28.15
2024-03-05T10:10:20.944Z,27.50
2024-03-05T10:12:47.676Z,27.38
2024-03-05T10:15:44.229Z,29.90
2024-03-05T10:18:10.623Z,28.95
2024-03-05T10:20:38.777Z,28.80
2024-03-05T10:23:07.324Z,26.80
2024-03-05T10:25:35.898Z,28.48
2024-03-05T10:28:05.390Z,28.98
2024-03-05T10:30:33.679Z,28.13
2024-03-05T10:33:01.468Z,28.55
2024-03-05T10:35:28.331Z,26.77
2024-03-05T10:38:00.514Z,26.65
2024-03-05T10:40:29.574Z,27.27
2024-03-05T10:42:56.207Z,28.83
2024-03-05T10:45:24.360Z,28.05
2024-03-05T10:47:51.587Z,28.38
2024-03-05T10:50:19.003Z,28.40
2024-03-05T10:52:46.335Z,27.38
2024-03-05T10:55:13.357Z,27.73
2024-03-05T10:57:58.715Z,27.88
2024-03-05T11:00:25.474Z,27.60
2024-03-05T11:02:53.601Z,25.95
2024-03-05T11:05:20.993Z,26.48
2024-03-05T11:07:48.662Z,26.38
2024-03-05T11:10:15.144Z,25.70
2024-03-05T11:12:43.562Z,26.35
2024-03-05T11:15:13.479Z,24.55
2024-03-05T11:17:42.648Z,26.17
2024-03-05T11:20:12.864Z,25.60
2024-03-05T11:22:44.870Z,23.35
2024-03-05T11:25:29.755Z,24.45
2024-03-05T11:27:57.771Z,24.02
2024-03-05T11:30:24.117Z,25.48
2024-03-05T11:32:52.146Z,26.08
2024-03-05T11:35:21.622Z,26.67
2024-03-05T11:37:51.341Z,24.90
2024-03-05T11:40:24.228Z,23.00
2024-03-05T11:42:53.033Z,23.45
2024-03-05T11:45:37.899Z,21.45
2024-03-05T11:48:04.749Z,22.77
2024-03-05T11:50:32.155Z,23.55
2024-03-05T11:52:58.565Z,22.10
2024-03-05T11:55:25.730Z,23.80
2024-03-05T11:57:58.499Z,24.52
2024-03-05T12:00:27.413Z,24.30
2024-03-05T12:02:54.414Z,23.83
2024-03-05T12:05:21.121Z,24.83
2024-03-05T12:08:00.328Z,24.95
2024-03-05T12:10:28.775Z,25.42
2024-03-05T12:12:55.296Z,24.88
2024-03-05T12:15:24.574Z,24.75
2024-03-05T12:17:50.933Z,26.65
2024-03-05T12:20:20.468Z,27.15
2024-03-05T12:22:50.615Z,24.90
2024-03-05T12:25:17.210Z,25.23
2024-03-05T12:27:47.399Z,26.60
2024-03-05T12:30:14.031Z,25.10
2024-03-05T12:32:45.346Z,26.05
2024-03-05T12:35:15.057Z,25.35
2024-03-05T12:37:41.586Z,24.03
2024-03-05T12:40:13.970Z,23.77
2024-03-05T12:42:40.495Z,23.33
2024-03-05T12:45:09.862Z,23.45
2024-03-05T12:47:37.616Z,23.13
2024-03-05T12:50:05.690Z,23.38
2024-03-05T12:52:33.227Z,24.00
2024-03-05T12:55:00.706Z,24.08
2024-03-05T12:57:30.625Z,23.95
2024-03-05T13:00:01.338Z,24.53
2024-03-05T13:04:57.014Z,22.80
2024-03-05T13:07:25.205Z,21.33
2024-03-05T13:09:51.561Z,21.38
2024-03-05T13:12:19.830Z,21.48
2024-03-05T13:14:46.146Z,22.48
2024-03-05T13:17:12.530Z,24.50
2024-03-05T13:19:38.883Z,22.85
2024-03-05T13:22:05.700Z,22.25
2024-03-05T13:24:35.390Z,22.58
2024-03-05T13:27:01.823Z,22.97
2024-03-05T13:29:28.202Z,23.38
2024-03-05T13:31:54.635Z,21.38
2024-03-05T13:34:23.731Z,21.90
2024-03-05T13:36:50.508Z,23.40
2024-03-05T13:39:23.020Z,23.90
2024-03-05T13:41:53.553Z,23.25
2024-03-05T13:44:21.619Z,23.30
2024-03-05T13:46:48.043Z,22.30
2024-03-05T13:49:18.244Z,22.40
2024-03-05T13:51:47.285Z,21.90
2024-03-05T13:54:13.615Z,21.48
2024-03-05T13:56:41.932Z,21.75
2024-03-05T13:59:11.507Z,20.55
2024-03-05T14:01:39.383Z,21.20
2024-03-05T14:04:10.871Z,21.27
2024-03-05T14:06:38.209Z,20.77
2024-03-05T14:09:05.553Z,20.50
2024-03-05T14:11:33.355Z,21.45
2024-03-05T14:13:59.857Z,20.48
2024-03-05T14:16:26.758Z,21.48
2024-03-05T14:18:53.596Z,21.20
2024-03-05T14:21:19.962Z,20.52
2024-03-05T14:23:46.286Z,20.05
2024-03-05T14:26:13.378Z,20.85
2024-03-05T14:28:39.912Z,20.02
2024-03-05T14:31:06.236Z,20.08
2024-03-05T14:33:32.753Z,20.55
2024-03-05T14:35:59.503Z,24.80
2024-03-05T14:38:26.002Z,21.33
2024-03-05T14:40:55.325Z,22.15
2024-03-05T14:43:22.749Z,20.38
2024-03-05T14:45:50.529Z,21.05
2024-03-05T14:48:17.009Z,23.17
2024-03-05T14:50:43.344Z,20.27
2024-03-05T14:53:09.752Z,19.63
2024-03-05T14:55:36.141Z,20.10
2024-03-05T14:58:05.755Z,19.67
2024-03-05T15:00:32.344Z,19.35
2024-03-05T15:02:59.436Z,19.83
2024-03-05T15:05:27.061Z,19.50
2024-03-05T15:07:56.121Z,20.67
2024-03-05T15:10:22.945Z,22.00
2024-03-05T15:12:50.248Z,19.50
2024-03-05T15:15:17.199Z,18.80
2024-03-05T15:17:43.949Z,20.17
2024-03-05T15:20:12.059Z,19.33
2024-03-05T15:22:39.499Z,18.40
2024-03-05T15:25:08.084Z,22.15
2024-03-05T15:27:35.174Z,20.83
2024-03-05T15:30:01.944Z,18.95
2024-03-05T15:32:28.400Z,21.10
2024-03-05T15:34:56.192Z,20.60
2024-03-05T15:37:23.182Z,21.38
2024-03-05T15:39:50.356Z,21.42
2024-03-05T15:42:16.699Z,21.17
2024-03-05T15:44:43.019Z,21.67
2024-03-05T15:47:09.628Z,21.38
2024-03-05T15:49:35.988Z,21.73
2024-03-05T15:52:05.656Z,20.35
2024-03-05T15:54:31.942Z,20.83
2024-03-05T15:56:58.942Z,21.60
2024-03-05T15:59:44.014Z,21.50
2024-03-05T16:02:10.408Z,20.52
2024-03-05T16:04:53.519Z,19.98
2024-03-05T16:07:24.293Z,20.60
2024-03-05T16:09:50.718Z,20.63
2024-03-05T16:12:17.391Z,21.90
2024-03-05T16:14:43.889Z,22.02
2024-03-05T16:17:10.721Z,21.52
2024-03-05T16:19:37.760Z,20.85
2024-03-05T16:22:05.024Z,21.17
2024-03-05T16:24:31.669Z,22.48
2024-03-05T16:26:58.035Z,21.00
2024-03-05T16:29:24.379Z,20.25
2024-03-05T16:31:52.862Z,21.38
2024-03-05T16:34:20.204Z,19.75
2024-03-05T16:36:48.496Z,20.67
2024-03-05T16:39:19.354Z,20.58
2024-03-05T16:41:45.992Z,20.08
2024-03-05T16:44:12.600Z,19.83
2024-03-05T16:46:39.026Z,20.80
2024-03-05T16:49:05.421Z,20.23
2024-03-05T16:51:31.720Z,21.27
2024-03-05T16:53:57.987Z,21.38
2024-03-05T16:56:24.264Z,20.17
2024-03-05T16:58:52.460Z,19.75
2024-03-05T17:01:18.917Z,20.38
2024-03-05T17:03:51.320Z,21.90
2024-03-05T17:06:20.106Z,20.75
2024-03-05T17:08:49.807Z,20.48
2024-03-05T17:11:17.056Z,21.87
2024-03-05T17:13:47.181Z,20.65
2024-03-05T17:16:13.676Z,21.67
2024-03-05T17:18:40.139Z,20.83
2024-03-05T17:21:07.603Z,20.77
2024-03-05T17:23:35.906Z,21.50
2024-03-05T17:26:02.513Z,21.40
2024-03-05T17:28:29.447Z,21.27
2024-03-05T17:30:57.236Z,20.98
2024-03-05T17:33:23.727Z,21.67
2024-03-05T17:35:51.769Z,21.92
2024-03-05T17:38:19.668Z,21.75
2024-03-05T17:40:46.185Z,24.60
2024-03-05T17:43:13.014Z,21.13
2024-03-05T17:45:39.357Z,20.27
2024-03-05T17:48:07.937Z,20.58
2024-03-05T17:50:35.916Z,21.17
2024-03-05T17:53:05.293Z,20.73
2024-03-05T17:55:31.785Z,20.55
2024-03-05T17:57:59.735Z,20.55
2024-03-05T18:00:29.052Z,21.65
2024-03-05T18:02:56.625Z,21.08
2024-03-05T18:05:26.576Z,20.17
2024-03-05T18:07:53.777Z,21.45
2024-03-05T18:10:21.679Z,21.48
2024-03-05T18:12:49.944Z,21.67
2024-03-05T18:15:20.405Z,22.60
2024-03-05T18:17:49.774Z,21.05
2024-03-05T18:20:20.252Z,21.65
2024-03-05T18:22:50.128Z,20.38
2024-03-05T18:25:20.032Z,20.00
2024-03-05T18:27:47.835Z,20.13
2024-03-05T18:30:19.662Z,18.98
2024-03-05T18:32:46.550Z,19.02
2024-03-05T18:35:13.011Z,19.35
2024-03-05T18:37:40.040Z,19.63
2024-03-05T18:40:06.840Z,20.33
2024-03-05T18:42:33.242Z,19.20
2024-03-05T18:44:59.604Z,18.50
2024-03-05T18:47:25.958Z,19.30
2024-03-05T18:49:52.630Z,15.90
2024-03-05T18:52:19.614Z,19.27
2024-03-05T18:54:46.157Z,18.30
2024-03-05T18:57:12.819Z,18.35
2024-03-05T18:59:39.134Z,19.73
2024-03-05T19:02:06.325Z,20.60
2024-03-05T19:04:32.723Z,18.55
2024-03-05T19:06:59.264Z,20.08
2024-03-05T19:09:25.949Z,21.17
2024-03-05T19:11:52.739Z,19.80
2024-03-05T19:14:19.760Z,20.00
2024-03-05T19:16:47.922Z,20.23
2024-03-05T19:19:14.800Z,21.95
2024-03-05T19:21:42.186Z,22.42
2024-03-05T19:24:10.257Z,22.80
2024-03-05T19:26:36.681Z,22.10
2024-03-05T19:29:03.019Z,19.90
2024-03-05T19:31:29.351Z,20.15
2024-03-05T19:33:55.677Z,17.48
2024-03-05T19:36:21.946Z,19.38
2024-03-05T19:38:48.267Z,18.30
2024-03-05T19:41:14.617Z,19.13
2024-03-05T19:43:41.197Z,18.30
2024-03-05T19:46:10.930Z,20.48
2024-03-05T19:48:37.750Z,19.70
2024-03-05T19:51:04.907Z,20.63
2024-03-05T19:53:31.326Z,21.45
2024-03-05T19:55:57.804Z,22.25
2024-03-05T19:58:24.224Z,24.25
2024-03-05T20:00:50.613Z,23.00
2024-03-05T20:03:16.963Z,21.20
2024-03-05T20:05:43.249Z,23.45
2024-03-05T20:08:09.634Z,23.52
2024-03-05T20:10:36.649Z,24.00
2024-03-05T20:13:03.178Z,23.77
2024-03-05T20:15:29.456Z,24.88
2024-03-05T20:17:55.897Z,26.23
2024-03-05T20:20:22.488Z,24.85
2024-03-05T20:22:49.740Z,23.95
2024-03-05T20:25:19.233Z,24.75
2024-03-05T20:27:50.138Z,23.77
2024-03-05T20:30:17.339Z,23.88
2024-03-05T20:32:44.105Z,25.67
2024-03-05T20:35:16.458Z,24.40
2024-03-05T20:37:49.808Z,23.58
2024-03-05T20:40:17.370Z,23.77
2024-03-05T20:42:44.564Z,23.83
2024-03-05T20:45:12.724Z,24.33
2024-03-05T20:47:39.393Z,25.42
2024-03-05T20:50:07.536Z,26.02
2024-03-05T20:52:34.747Z,25.92
2024-03-05T20:55:01.994Z,25.60
2024-03-05T20:57:29.145Z,23.98
2024-03-05T21:00:00.790Z,23.40
2024-03-05T21:02:27.791Z,23.45
2024-03-05T21:04:54.275Z,23.00
2024-03-05T21:07:20.664Z,21.42
2024-03-05T21:09:46.972Z,22.73
2024-03-05T21:12:15.979Z,25.90
2024-03-05T21:14:42.315Z,22.67
2024-03-05T21:17:08.704Z,24.92
2024-03-05T21:19:35.186Z,24.75
2024-03-05T21:22:01.510Z,23.50
2024-03-05T21:24:27.946Z,22.33
2024-03-05T21:27:09.812Z,21.75
2024-03-05T21:29:40.661Z,21.00
2024-03-05T21:32:09.865Z,21.33
2024-03-05T21:34:36.328Z,22.58
2024-03-05T21:37:02.729Z,22.42
2024-03-05T21:39:29.210Z,21.90
2024-03-05T21:41:56.238Z,22.63
2024-03-05T21:44:26.268Z,21.90
2024-03-05T21:47:00.996Z,21.85
2024-03-05T21:49:27.402Z,20.98
2024-03-05T21:51:53.778Z,20.10
2024-03-05T21:54:24.125Z,21.67
2024-03-05T21:56:51.408Z,21.05
2024-03-05T21:59:17.736Z,21.80
2024-03-05T22:01:44.367Z,21.27
2024-03-05T22:04:10.661Z,18.75
2024-03-05T22:06:36.935Z,18.52
2024-03-05T22:09:09.911Z,19.25
2024-03-05T22:11:38.788Z,18.55
2024-03-05T22:14:12.733Z,18.58
2024-03-05T22:16:39.758Z,19.13
2024-03-05T22:19:06.344Z,18.83
2024-03-05T22:21:33.226Z,17.73
2024-03-05T22:23:59.771Z,18.58
2024-03-05T22:26:28.915Z,17.83
2024-03-05T22:28:55.507Z,17.75
2024-03-05T22:31:25.180Z,19.85
2024-03-05T22:33:51.482Z,21.83
2024-03-05T22:36:18.088Z,22.40
2024-03-05T22:38:44.920Z,21.90
2024-03-05T22:41:11.676Z,20.35
2024-03-05T22:43:38.368Z,19.20
2024-03-05T22:46:05.107Z,17.50
2024-03-05T22:48:31.599Z,18.23
2024-03-05T22:50:58.463Z,17.30
2024-03-05T22:53:25.689Z,18.35
2024-03-05T22:55:55.462Z,18.27
2024-03-05T22:58:22.168Z,18.33
2024-03-05T23:00:54.930Z,17.65
2024-03-05T23:03:21.295Z,19.17
2024-03-05T23:05:47.583Z,18.60
2024-03-05T23:08:14.187Z,19.45
2024-03-05T23:10:40.694Z,20.48
2024-03-05T23:13:07.107Z,20.13
2024-03-05T23:15:34.665Z,19.88
2024-03-05T23:18:02.176Z,18.83
2024-03-05T23:20:28.578Z,21.30
2024-03-05T23:22:54.962Z,20.55
2024-03-05T23:25:21.891Z,17.67
2024-03-05T23:27:48.446Z,16.40
2024-03-05T23:30:17.384Z,14.80
2024-03-05T23:32:43.947Z,15.93
2024-03-05T23:35:10.469Z,16.38
2024-03-05T23:37:37.103Z,17.75
2024-03-05T23:40:07.305Z,18.50
2024-03-05T23:42:34.711Z,16.83
2024-03-05T23:45:01.519Z,16.92
2024-03-05T23:47:28.031Z,17.33
2024-03-05T23:49:54.378Z,17.35
2024-03-05T23:52:20.670Z,16.63
2024-03-05T23:54:47.055Z,16.80
2024-03-05T23:57:13.376Z,18.50
2024-03-05T23:59:40.586Z,17.45
